Aeroporto :
LOGIN :

Iscrizione | Disclaimer

   EN    FR    IT 

 










Sommario :    VFR   VFR Marginale   IFR   IFR Intensivo   IFR Molto Intensivo
Visibilità : 
Base nubi : 
>= 8 km
>= 3000ft
5 / 8 km
1000 / 3000 ft
1500m / 5 km
500 / 1000 ft
800 / 1500m
200 / 500 ft
< 800m
< 200 ft
Simboli :   Temporali  Nebbia  Neve Forte  Precipitazioni Forti  Vento > 20 kt
SIGMETs :   Varie  Temporali  Ghiacco  Turbolenza  Onda orograficha  Ceneri Vulcaniche






- Altitudine del aeroporto : 102 ft
- Codice IATA : CNG


LFBG - Cognac

ULTIMO METAR :
  • 131400Z AUTO 19007KT 160V220 9999 -RA SCT009/// SCT032/// BKN060/// ///CB 21/20 Q1015 TEMPO 2000 TSRA BKN008 BKN018CB BECMG 22015G25KT

METARs OBSOLETI :
  • 131330Z AUTO 20009KT 9000 -RA FEW008/// SCT019/// BKN046/// ///CB 20/20 Q1015 TEMPO 2000 TSRA BKN008 BKN018CB BECMG 22015G25KT
  • 131300Z AUTO 20009KT 5000 RA BR FEW009/// SCT018/// OVC092/// ///CB 21/20 Q1015 TEMPO 2000 TSRA BKN008 BKN018CB BECMG 22015G25KT
  • 131230Z AUTO 21010KT 7000 -RA ///CB 21/20 Q1015 TEMPO 2000 TSRA BKN008 BKN018CB BECMG 22015G25KT
  • 131200Z AUTO 21015KT 9999 -RA FEW013/// BKN050/// BKN064/// ///CB 22/19 Q1015 TEMPO 2000 TSRA BKN008 BKN018CB BECMG 22015G25KT
  • 131130Z AUTO 20015KT 9999 SCT014/// SCT023/// BKN064/// ///CB 23/19 Q1014 TEMPO 2000 TSRA BKN008 BKN018CB BECMG 22015G25KT
  • 131100Z AUTO 20015KT 9999 BKN020/// BKN027/// BKN056/// ///CB 23/18 Q1014 TEMPO 2000 TSRA BKN008 BKN018CB BECMG 22015G25KT

TAF TAF LFBG
Valido dal 13 a 09 ore il 14 a 09 ore UTC


130800Z 1309/1409 22015G25KT 9999 BKN012 BKN020
TEMPO 1309/1314 4000 RA BKN009 BKN020CB
PROB40
TEMPO 1309/1318 2000 TSRA BKN008 BKN018CB
BECMG 1318/1320 24008KT SCT015 SCT030



MetMap, La meteo Aeronautica in un colpo d'occhio ! - Copyright ORBIFLY Dicembre 2007 - Disclaimer

ORBIFLY MET'MAP TEAM :

Programmazione e sviluppo : Alexandra Zaïnal
Concezione : Baudouin d'Aumeries
Aiuto per la programmazione : Marc-Olivier Méhu
Supporto tecnico e logistico : Manuel Goepfert
Aiuto per la traduzione : Arnaldo La Scala

Contatto : metmap@orbifly.com




FONTI E CREDITI :

   NOAA